sensor_id;sensor_type;location;lat;lon;timestamp;temperature;humidity
13898;DHT22;7019;50.766;4.474;2023-12-28T00:02:02;9.40;99.90
13898;DHT22;7019;50.766;4.474;2023-12-28T00:04:29;9.40;99.90
13898;DHT22;7019;50.766;4.474;2023-12-28T00:06:57;9.40;99.90
13898;DHT22;7019;50.766;4.474;2023-12-28T00:09:24;9.40;99.90
13898;DHT22;7019;50.766;4.474;2023-12-28T00:11:51;9.40;99.90
13898;DHT22;7019;50.766;4.474;2023-12-28T00:14:19;9.30;99.90
13898;DHT22;7019;50.766;4.474;2023-12-28T00:16:46;9.30;99.90
13898;DHT22;7019;50.766;4.474;2023-12-28T00:19:13;9.30;99.90
13898;DHT22;7019;50.766;4.474;2023-12-28T00:21:40;9.30;99.90
13898;DHT22;7019;50.766;4.474;2023-12-28T00:24:08;9.30;99.90
13898;DHT22;7019;50.766;4.474;2023-12-28T00:26:35;9.20;99.90
13898;DHT22;7019;50.766;4.474;2023-12-28T00:29:02;9.20;99.90
13898;DHT22;7019;50.766;4.474;2023-12-28T00:31:29;9.20;99.90
13898;DHT22;7019;50.766;4.474;2023-12-28T00:33:56;9.30;99.90
13898;DHT22;7019;50.766;4.474;2023-12-28T00:36:23;9.20;99.90
13898;DHT22;7019;50.766;4.474;2023-12-28T00:38:51;9.20;99.90
13898;DHT22;7019;50.766;4.474;2023-12-28T00:41:20;9.30;99.90
13898;DHT22;7019;50.766;4.474;2023-12-28T00:43:47;9.30;99.90
13898;DHT22;7019;50.766;4.474;2023-12-28T00:46:14;9.30;99.90
13898;DHT22;7019;50.766;4.474;2023-12-28T00:48:41;9.30;99.90
13898;DHT22;7019;50.766;4.474;2023-12-28T00:51:08;9.30;99.90
13898;DHT22;7019;50.766;4.474;2023-12-28T00:53:35;9.30;99.90
13898;DHT22;7019;50.766;4.474;2023-12-28T00:56:02;9.30;99.90
13898;DHT22;7019;50.766;4.474;2023-12-28T00:58:30;9.40;99.90
13898;DHT22;7019;50.766;4.474;2023-12-28T01:00:57;9.40;99.90
13898;DHT22;7019;50.766;4.474;2023-12-28T01:03:24;9.30;99.90
13898;DHT22;7019;50.766;4.474;2023-12-28T01:05:51;9.30;99.90
13898;DHT22;7019;50.766;4.474;2023-12-28T01:08:18;9.20;99.90
13898;DHT22;7019;50.766;4.474;2023-12-28T01:10:46;9.20;99.90
13898;DHT22;7019;50.766;4.474;2023-12-28T01:13:13;9.10;99.90
13898;DHT22;7019;50.766;4.474;2023-12-28T01:15:41;9.10;99.90
13898;DHT22;7019;50.766;4.474;2023-12-28T01:18:08;9.10;99.90
13898;DHT22;7019;50.766;4.474;2023-12-28T01:20:36;9.10;99.90
13898;DHT22;7019;50.766;4.474;2023-12-28T01:23:03;9.10;99.90
13898;DHT22;7019;50.766;4.474;2023-12-28T01:25:30;9.10;99.90
13898;DHT22;7019;50.766;4.474;2023-12-28T01:27:57;9.10;99.90
13898;DHT22;7019;50.766;4.474;2023-12-28T01:30:24;9.10;99.90
13898;DHT22;7019;50.766;4.474;2023-12-28T01:32:53;9.00;99.90
13898;DHT22;7019;50.766;4.474;2023-12-28T01:35:20;9.00;99.90
13898;DHT22;7019;50.766;4.474;2023-12-28T01:37:47;9.00;99.90
13898;DHT22;7019;50.766;4.474;2023-12-28T01:40:15;8.90;99.90
13898;DHT22;7019;50.766;4.474;2023-12-28T01:42:43;8.90;99.90
13898;DHT22;7019;50.766;4.474;2023-12-28T01:45:11;8.90;99.90
13898;DHT22;7019;50.766;4.474;2023-12-28T01:47:39;8.90;99.90
13898;DHT22;7019;50.766;4.474;2023-12-28T01:50:08;8.90;99.90
13898;DHT22;7019;50.766;4.474;2023-12-28T01:52:36;8.90;99.90
13898;DHT22;7019;50.766;4.474;2023-12-28T01:55:04;8.90;99.90
13898;DHT22;7019;50.766;4.474;2023-12-28T01:57:32;8.90;99.90
13898;DHT22;7019;50.766;4.474;2023-12-28T01:59:59;8.90;99.90
13898;DHT22;7019;50.766;4.474;2023-12-28T02:02:29;8.90;99.90
13898;DHT22;7019;50.766;4.474;2023-12-28T02:04:57;8.80;99.90
13898;DHT22;7019;50.766;4.474;2023-12-28T02:07:26;8.80;99.90
13898;DHT22;7019;50.766;4.474;2023-12-28T02:09:54;8.70;99.90
13898;DHT22;7019;50.766;4.474;2023-12-28T02:12:21;8.80;99.90
13898;DHT22;7019;50.766;4.474;2023-12-28T02:14:48;8.80;99.90
13898;DHT22;7019;50.766;4.474;2023-12-28T02:17:19;8.80;99.90
13898;DHT22;7019;50.766;4.474;2023-12-28T02:19:50;8.80;99.90
13898;DHT22;7019;50.766;4.474;2023-12-28T02:22:18;8.70;99.90
13898;DHT22;7019;50.766;4.474;2023-12-28T02:25:02;8.80;99.90
13898;DHT22;7019;50.766;4.474;2023-12-28T02:27:29;8.80;99.90
13898;DHT22;7019;50.766;4.474;2023-12-28T02:29:57;8.80;99.90
13898;DHT22;7019;50.766;4.474;2023-12-28T02:32:36;8.80;99.90
13898;DHT22;7019;50.766;4.474;2023-12-28T02:35:12;8.80;99.90
13898;DHT22;7019;50.766;4.474;2023-12-28T02:37:43;8.90;99.90
13898;DHT22;7019;50.766;4.474;2023-12-28T02:40:15;9.00;99.90
13898;DHT22;7019;50.766;4.474;2023-12-28T02:42:43;9.00;99.90
13898;DHT22;7019;50.766;4.474;2023-12-28T02:45:10;9.00;99.90
13898;DHT22;7019;50.766;4.474;2023-12-28T02:47:37;9.00;99.90
13898;DHT22;7019;50.766;4.474;2023-12-28T02:50:06;9.00;99.90
13898;DHT22;7019;50.766;4.474;2023-12-28T02:52:33;8.90;99.90
13898;DHT22;7019;50.766;4.474;2023-12-28T02:55:00;9.00;99.90
13898;DHT22;7019;50.766;4.474;2023-12-28T02:57:28;9.10;99.90
13898;DHT22;7019;50.766;4.474;2023-12-28T02:59:55;9.10;99.90
13898;DHT22;7019;50.766;4.474;2023-12-28T03:02:27;9.10;99.90
13898;DHT22;7019;50.766;4.474;2023-12-28T03:04:54;9.10;99.90
13898;DHT22;7019;50.766;4.474;2023-12-28T03:07:21;9.20;99.90
13898;DHT22;7019;50.766;4.474;2023-12-28T03:09:48;9.20;99.90
13898;DHT22;7019;50.766;4.474;2023-12-28T03:12:15;9.20;99.90
13898;DHT22;7019;50.766;4.474;2023-12-28T03:14:44;9.30;99.90
13898;DHT22;7019;50.766;4.474;2023-12-28T03:17:11;9.30;99.90
13898;DHT22;7019;50.766;4.474;2023-12-28T03:19:38;9.30;99.90
13898;DHT22;7019;50.766;4.474;2023-12-28T03:22:06;9.30;99.90
13898;DHT22;7019;50.766;4.474;2023-12-28T03:24:33;9.30;99.90
13898;DHT22;7019;50.766;4.474;2023-12-28T03:27:00;9.30;99.90
13898;DHT22;7019;50.766;4.474;2023-12-28T03:29:28;9.40;99.90
13898;DHT22;7019;50.766;4.474;2023-12-28T03:31:56;9.40;99.90
13898;DHT22;7019;50.766;4.474;2023-12-28T03:34:24;9.50;99.90
13898;DHT22;7019;50.766;4.474;2023-12-28T03:36:52;9.60;99.90
13898;DHT22;7019;50.766;4.474;2023-12-28T03:39:19;9.60;99.90
13898;DHT22;7019;50.766;4.474;2023-12-28T03:41:47;9.60;99.90
13898;DHT22;7019;50.766;4.474;2023-12-28T03:44:14;9.50;99.90
13898;DHT22;7019;50.766;4.474;2023-12-28T03:46:41;9.40;99.90
13898;DHT22;7019;50.766;4.474;2023-12-28T03:49:10;9.40;99.90
13898;DHT22;7019;50.766;4.474;2023-12-28T03:51:37;9.40;99.90
13898;DHT22;7019;50.766;4.474;2023-12-28T03:54:04;9.40;99.90
13898;DHT22;7019;50.766;4.474;2023-12-28T03:56:32;9.40;99.90
13898;DHT22;7019;50.766;4.474;2023-12-28T03:59:01;9.30;99.90
13898;DHT22;7019;50.766;4.474;2023-12-28T04:01:28;9.40;99.90
13898;DHT22;7019;50.766;4.474;2023-12-28T04:03:55;9.40;99.90
13898;DHT22;7019;50.766;4.474;2023-12-28T04:06:24;9.40;99.90
13898;DHT22;7019;50.766;4.474;2023-12-28T04:08:51;9.30;99.90
13898;DHT22;7019;50.766;4.474;2023-12-28T04:11:18;9.30;99.90
13898;DHT22;7019;50.766;4.474;2023-12-28T04:13:45;9.40;99.90
13898;DHT22;7019;50.766;4.474;2023-12-28T04:16:13;9.40;99.90
13898;DHT22;7019;50.766;4.474;2023-12-28T04:18:40;9.40;99.90
13898;DHT22;7019;50.766;4.474;2023-12-28T04:21:08;9.50;99.90
13898;DHT22;7019;50.766;4.474;2023-12-28T04:23:39;9.60;99.90
13898;DHT22;7019;50.766;4.474;2023-12-28T04:26:06;9.60;99.90
13898;DHT22;7019;50.766;4.474;2023-12-28T04:28:33;9.60;99.90
13898;DHT22;7019;50.766;4.474;2023-12-28T04:31:03;9.60;99.90
13898;DHT22;7019;50.766;4.474;2023-12-28T04:33:30;9.70;99.90
13898;DHT22;7019;50.766;4.474;2023-12-28T04:36:00;9.80;99.90
13898;DHT22;7019;50.766;4.474;2023-12-28T04:38:27;9.70;99.90
13898;DHT22;7019;50.766;4.474;2023-12-28T04:40:55;9.70;99.90
13898;DHT22;7019;50.766;4.474;2023-12-28T04:43:22;9.80;99.90
13898;DHT22;7019;50.766;4.474;2023-12-28T04:45:50;9.80;99.90
13898;DHT22;7019;50.766;4.474;2023-12-28T04:48:17;9.70;99.90
13898;DHT22;7019;50.766;4.474;2023-12-28T04:50:47;9.60;99.90
13898;DHT22;7019;50.766;4.474;2023-12-28T04:53:14;9.60;99.90
13898;DHT22;7019;50.766;4.474;2023-12-28T04:55:41;9.50;99.90
13898;DHT22;7019;50.766;4.474;2023-12-28T04:58:10;9.50;99.90
13898;DHT22;7019;50.766;4.474;2023-12-28T05:00:37;9.40;99.90
13898;DHT22;7019;50.766;4.474;2023-12-28T05:03:05;9.30;99.90
13898;DHT22;7019;50.766;4.474;2023-12-28T05:05:32;9.20;99.90
13898;DHT22;7019;50.766;4.474;2023-12-28T05:07:59;9.20;99.90
13898;DHT22;7019;50.766;4.474;2023-12-28T05:10:26;9.10;99.90
13898;DHT22;7019;50.766;4.474;2023-12-28T05:12:54;9.10;99.90
13898;DHT22;7019;50.766;4.474;2023-12-28T05:15:22;9.00;99.90
13898;DHT22;7019;50.766;4.474;2023-12-28T05:17:49;9.00;99.90
13898;DHT22;7019;50.766;4.474;2023-12-28T05:20:16;9.00;99.90
13898;DHT22;7019;50.766;4.474;2023-12-28T05:22:44;9.00;99.90
13898;DHT22;7019;50.766;4.474;2023-12-28T05:25:11;8.90;99.90
13898;DHT22;7019;50.766;4.474;2023-12-28T05:27:38;8.90;99.90
13898;DHT22;7019;50.766;4.474;2023-12-28T05:30:06;9.00;99.90
13898;DHT22;7019;50.766;4.474;2023-12-28T05:32:36;8.90;99.90
13898;DHT22;7019;50.766;4.474;2023-12-28T05:35:03;8.80;99.90
13898;DHT22;7019;50.766;4.474;2023-12-28T05:37:31;8.80;99.90
13898;DHT22;7019;50.766;4.474;2023-12-28T05:39:58;8.90;99.90
13898;DHT22;7019;50.766;4.474;2023-12-28T05:42:25;8.90;99.90
13898;DHT22;7019;50.766;4.474;2023-12-28T05:44:52;8.90;99.90
13898;DHT22;7019;50.766;4.474;2023-12-28T05:47:19;9.00;99.90
13898;DHT22;7019;50.766;4.474;2023-12-28T05:49:48;9.00;99.90
13898;DHT22;7019;50.766;4.474;2023-12-28T05:52:15;9.10;99.90
13898;DHT22;7019;50.766;4.474;2023-12-28T05:54:44;9.30;99.90
13898;DHT22;7019;50.766;4.474;2023-12-28T05:57:11;9.40;99.90
13898;DHT22;7019;50.766;4.474;2023-12-28T05:59:38;9.40;99.90
13898;DHT22;7019;50.766;4.474;2023-12-28T06:02:06;9.40;99.90
13898;DHT22;7019;50.766;4.474;2023-12-28T06:04:33;9.40;99.90
13898;DHT22;7019;50.766;4.474;2023-12-28T06:07:03;9.40;99.90
13898;DHT22;7019;50.766;4.474;2023-12-28T06:09:30;9.30;99.90
13898;DHT22;7019;50.766;4.474;2023-12-28T06:11:57;9.30;99.90
13898;DHT22;7019;50.766;4.474;2023-12-28T06:14:24;9.30;99.90
13898;DHT22;7019;50.766;4.474;2023-12-28T06:16:51;9.30;99.90
13898;DHT22;7019;50.766;4.474;2023-12-28T06:19:18;9.30;99.90
13898;DHT22;7019;50.766;4.474;2023-12-28T06:21:45;9.20;99.90
13898;DHT22;7019;50.766;4.474;2023-12-28T06:24:14;9.20;99.90
13898;DHT22;7019;50.766;4.474;2023-12-28T06:26:41;9.10;99.90
13898;DHT22;7019;50.766;4.474;2023-12-28T06:29:09;9.00;99.90
13898;DHT22;7019;50.766;4.474;2023-12-28T06:31:36;8.90;99.90
13898;DHT22;7019;50.766;4.474;2023-12-28T06:34:03;8.90;99.90
13898;DHT22;7019;50.766;4.474;2023-12-28T06:36:31;9.10;99.90
13898;DHT22;7019;50.766;4.474;2023-12-28T06:38:59;9.10;99.90
13898;DHT22;7019;50.766;4.474;2023-12-28T06:41:27;9.10;99.90
13898;DHT22;7019;50.766;4.474;2023-12-28T06:43:54;9.00;99.90
13898;DHT22;7019;50.766;4.474;2023-12-28T06:46:21;9.00;99.90
13898;DHT22;7019;50.766;4.474;2023-12-28T06:48:49;9.00;99.90
13898;DHT22;7019;50.766;4.474;2023-12-28T06:51:19;9.00;99.90
13898;DHT22;7019;50.766;4.474;2023-12-28T06:53:48;9.00;99.90
13898;DHT22;7019;50.766;4.474;2023-12-28T06:56:15;8.90;99.90
13898;DHT22;7019;50.766;4.474;2023-12-28T06:58:44;8.80;99.90
13898;DHT22;7019;50.766;4.474;2023-12-28T07:01:11;8.90;99.90
13898;DHT22;7019;50.766;4.474;2023-12-28T07:03:38;8.90;99.90
13898;DHT22;7019;50.766;4.474;2023-12-28T07:06:05;8.80;99.90
13898;DHT22;7019;50.766;4.474;2023-12-28T07:08:32;8.80;99.90
13898;DHT22;7019;50.766;4.474;2023-12-28T07:10:59;8.70;99.90
13898;DHT22;7019;50.766;4.474;2023-12-28T07:13:27;8.70;99.90
13898;DHT22;7019;50.766;4.474;2023-12-28T07:15:55;8.60;99.90
13898;DHT22;7019;50.766;4.474;2023-12-28T07:18:22;8.60;99.90
13898;DHT22;7019;50.766;4.474;2023-12-28T07:20:49;8.60;99.90
13898;DHT22;7019;50.766;4.474;2023-12-28T07:23:16;8.60;99.90
13898;DHT22;7019;50.766;4.474;2023-12-28T07:25:43;8.50;99.90
13898;DHT22;7019;50.766;4.474;2023-12-28T07:28:10;8.50;99.90
13898;DHT22;7019;50.766;4.474;2023-12-28T07:30:38;8.40;99.90
13898;DHT22;7019;50.766;4.474;2023-12-28T07:33:06;8.40;99.90
13898;DHT22;7019;50.766;4.474;2023-12-28T07:35:33;8.50;99.90
13898;DHT22;7019;50.766;4.474;2023-12-28T07:38:00;8.40;99.90
13898;DHT22;7019;50.766;4.474;2023-12-28T07:40:28;8.40;99.90
13898;DHT22;7019;50.766;4.474;2023-12-28T07:42:55;8.40;99.90
13898;DHT22;7019;50.766;4.474;2023-12-28T07:45:22;8.30;99.90
13898;DHT22;7019;50.766;4.474;2023-12-28T07:47:50;8.30;99.90
13898;DHT22;7019;50.766;4.474;2023-12-28T07:50:19;8.30;99.90
13898;DHT22;7019;50.766;4.474;2023-12-28T07:52:46;8.30;99.90
13898;DHT22;7019;50.766;4.474;2023-12-28T07:55:14;8.30;99.90
13898;DHT22;7019;50.766;4.474;2023-12-28T07:57:41;8.40;99.90
13898;DHT22;7019;50.766;4.474;2023-12-28T08:00:09;8.50;99.90
13898;DHT22;7019;50.766;4.474;2023-12-28T08:02:36;8.60;99.90
13898;DHT22;7019;50.766;4.474;2023-12-28T08:05:04;8.60;99.90
13898;DHT22;7019;50.766;4.474;2023-12-28T08:07:32;8.70;99.90
13898;DHT22;7019;50.766;4.474;2023-12-28T08:10:00;8.60;99.90
13898;DHT22;7019;50.766;4.474;2023-12-28T08:12:27;8.60;99.90
13898;DHT22;7019;50.766;4.474;2023-12-28T08:14:54;8.70;99.90
13898;DHT22;7019;50.766;4.474;2023-12-28T08:17:22;8.60;99.90
13898;DHT22;7019;50.766;4.474;2023-12-28T08:19:49;8.70;99.90
13898;DHT22;7019;50.766;4.474;2023-12-28T08:22:16;8.70;99.90
13898;DHT22;7019;50.766;4.474;2023-12-28T08:24:45;8.80;99.90
13898;DHT22;7019;50.766;4.474;2023-12-28T08:27:12;8.90;99.90
13898;DHT22;7019;50.766;4.474;2023-12-28T08:29:40;9.00;99.90
13898;DHT22;7019;50.766;4.474;2023-12-28T08:32:07;9.00;99.90
13898;DHT22;7019;50.766;4.474;2023-12-28T08:34:36;9.10;99.90
13898;DHT22;7019;50.766;4.474;2023-12-28T08:37:03;9.10;99.90
13898;DHT22;7019;50.766;4.474;2023-12-28T08:39:30;9.20;99.90
13898;DHT22;7019;50.766;4.474;2023-12-28T08:41:59;9.20;99.90
13898;DHT22;7019;50.766;4.474;2023-12-28T08:44:26;9.20;99.90
13898;DHT22;7019;50.766;4.474;2023-12-28T08:46:53;9.30;99.90
13898;DHT22;7019;50.766;4.474;2023-12-28T08:49:20;9.30;99.90
13898;DHT22;7019;50.766;4.474;2023-12-28T08:51:47;9.40;99.90
13898;DHT22;7019;50.766;4.474;2023-12-28T08:54:15;9.40;99.90
13898;DHT22;7019;50.766;4.474;2023-12-28T08:56:42;9.40;99.90
13898;DHT22;7019;50.766;4.474;2023-12-28T08:59:10;9.40;99.90
13898;DHT22;7019;50.766;4.474;2023-12-28T09:01:37;9.50;99.90
13898;DHT22;7019;50.766;4.474;2023-12-28T09:04:04;9.50;99.90
13898;DHT22;7019;50.766;4.474;2023-12-28T09:06:32;9.50;99.90
13898;DHT22;7019;50.766;4.474;2023-12-28T09:08:59;9.50;99.90
13898;DHT22;7019;50.766;4.474;2023-12-28T09:11:26;9.60;99.90
13898;DHT22;7019;50.766;4.474;2023-12-28T09:13:54;9.60;99.90
13898;DHT22;7019;50.766;4.474;2023-12-28T09:16:22;9.70;99.90
13898;DHT22;7019;50.766;4.474;2023-12-28T09:18:50;9.80;99.90
13898;DHT22;7019;50.766;4.474;2023-12-28T09:21:17;9.60;99.90
13898;DHT22;7019;50.766;4.474;2023-12-28T09:23:44;9.70;99.90
13898;DHT22;7019;50.766;4.474;2023-12-28T09:26:11;9.60;99.90
13898;DHT22;7019;50.766;4.474;2023-12-28T09:28:38;9.60;99.90
13898;DHT22;7019;50.766;4.474;2023-12-28T09:31:06;9.60;99.90
13898;DHT22;7019;50.766;4.474;2023-12-28T09:33:35;9.60;99.90
13898;DHT22;7019;50.766;4.474;2023-12-28T09:36:03;9.60;99.90
13898;DHT22;7019;50.766;4.474;2023-12-28T09:38:30;9.60;99.90
13898;DHT22;7019;50.766;4.474;2023-12-28T09:41:01;9.60;99.90
13898;DHT22;7019;50.766;4.474;2023-12-28T09:43:32;9.60;99.90
13898;DHT22;7019;50.766;4.474;2023-12-28T09:46:06;9.60;99.90
13898;DHT22;7019;50.766;4.474;2023-12-28T09:48:34;9.60;99.90
13898;DHT22;7019;50.766;4.474;2023-12-28T09:51:03;9.60;99.90
13898;DHT22;7019;50.766;4.474;2023-12-28T09:53:31;9.70;99.90
13898;DHT22;7019;50.766;4.474;2023-12-28T09:56:00;9.70;99.90
13898;DHT22;7019;50.766;4.474;2023-12-28T09:58:54;9.80;99.90
13898;DHT22;7019;50.766;4.474;2023-12-28T10:01:26;9.70;99.90
13898;DHT22;7019;50.766;4.474;2023-12-28T10:03:54;9.70;99.90
13898;DHT22;7019;50.766;4.474;2023-12-28T10:06:22;9.70;99.90
13898;DHT22;7019;50.766;4.474;2023-12-28T10:08:49;9.70;99.90
13898;DHT22;7019;50.766;4.474;2023-12-28T10:11:17;9.70;99.90
13898;DHT22;7019;50.766;4.474;2023-12-28T10:13:45;9.80;99.90
13898;DHT22;7019;50.766;4.474;2023-12-28T10:16:13;9.90;99.90
13898;DHT22;7019;50.766;4.474;2023-12-28T10:18:41;9.90;99.90
13898;DHT22;7019;50.766;4.474;2023-12-28T10:21:11;9.90;99.90
13898;DHT22;7019;50.766;4.474;2023-12-28T10:23:38;9.90;99.90
13898;DHT22;7019;50.766;4.474;2023-12-28T10:26:06;9.90;99.90
13898;DHT22;7019;50.766;4.474;2023-12-28T10:28:34;10.00;99.90
13898;DHT22;7019;50.766;4.474;2023-12-28T10:31:03;10.10;99.90
13898;DHT22;7019;50.766;4.474;2023-12-28T10:33:34;10.10;99.90
13898;DHT22;7019;50.766;4.474;2023-12-28T10:36:05;10.20;99.90
13898;DHT22;7019;50.766;4.474;2023-12-28T10:38:35;10.20;99.90
13898;DHT22;7019;50.766;4.474;2023-12-28T10:41:04;10.20;99.90
13898;DHT22;7019;50.766;4.474;2023-12-28T10:43:40;10.30;99.90
13898;DHT22;7019;50.766;4.474;2023-12-28T10:46:09;10.40;99.90
13898;DHT22;7019;50.766;4.474;2023-12-28T10:48:38;10.40;99.90
13898;DHT22;7019;50.766;4.474;2023-12-28T10:51:10;10.40;99.90
13898;DHT22;7019;50.766;4.474;2023-12-28T10:53:48;10.40;99.90
13898;DHT22;7019;50.766;4.474;2023-12-28T10:56:23;10.50;99.90
13898;DHT22;7019;50.766;4.474;2023-12-28T10:59:01;10.50;99.90
13898;DHT22;7019;50.766;4.474;2023-12-28T11:01:33;10.50;99.90
13898;DHT22;7019;50.766;4.474;2023-12-28T11:04:07;10.50;99.90
13898;DHT22;7019;50.766;4.474;2023-12-28T11:06:36;10.70;99.90
13898;DHT22;7019;50.766;4.474;2023-12-28T11:09:07;10.70;99.90
13898;DHT22;7019;50.766;4.474;2023-12-28T11:11:36;10.70;99.90
13898;DHT22;7019;50.766;4.474;2023-12-28T11:14:06;10.80;99.90
13898;DHT22;7019;50.766;4.474;2023-12-28T11:16:34;10.90;99.90
13898;DHT22;7019;50.766;4.474;2023-12-28T11:19:01;11.00;99.90
13898;DHT22;7019;50.766;4.474;2023-12-28T11:21:30;11.00;99.90
13898;DHT22;7019;50.766;4.474;2023-12-28T11:23:57;11.10;99.90
13898;DHT22;7019;50.766;4.474;2023-12-28T11:26:26;11.10;99.90
13898;DHT22;7019;50.766;4.474;2023-12-28T11:29:00;11.10;99.90
13898;DHT22;7019;50.766;4.474;2023-12-28T11:31:28;11.10;99.90
13898;DHT22;7019;50.766;4.474;2023-12-28T11:33:55;11.10;99.90
13898;DHT22;7019;50.766;4.474;2023-12-28T11:36:24;11.10;99.90
13898;DHT22;7019;50.766;4.474;2023-12-28T11:38:53;11.20;99.90
13898;DHT22;7019;50.766;4.474;2023-12-28T11:41:22;11.10;99.90
13898;DHT22;7019;50.766;4.474;2023-12-28T11:43:54;11.20;99.90
13898;DHT22;7019;50.766;4.474;2023-12-28T11:46:22;11.10;99.90
13898;DHT22;7019;50.766;4.474;2023-12-28T11:48:49;11.20;99.90
13898;DHT22;7019;50.766;4.474;2023-12-28T11:51:16;11.20;99.90
13898;DHT22;7019;50.766;4.474;2023-12-28T11:53:44;11.30;99.90
13898;DHT22;7019;50.766;4.474;2023-12-28T11:56:16;11.30;99.90
13898;DHT22;7019;50.766;4.474;2023-12-28T11:58:43;11.30;99.90
13898;DHT22;7019;50.766;4.474;2023-12-28T12:01:14;11.30;99.90
13898;DHT22;7019;50.766;4.474;2023-12-28T12:03:41;11.30;99.90
13898;DHT22;7019;50.766;4.474;2023-12-28T12:06:08;11.40;99.90
13898;DHT22;7019;50.766;4.474;2023-12-28T12:08:36;11.40;99.90
13898;DHT22;7019;50.766;4.474;2023-12-28T12:11:05;11.40;99.90
13898;DHT22;7019;50.766;4.474;2023-12-28T12:13:33;11.30;99.90
13898;DHT22;7019;50.766;4.474;2023-12-28T12:16:00;11.30;99.90
13898;DHT22;7019;50.766;4.474;2023-12-28T12:18:32;11.30;99.90
13898;DHT22;7019;50.766;4.474;2023-12-28T12:21:00;11.40;99.90
13898;DHT22;7019;50.766;4.474;2023-12-28T12:23:28;11.30;99.90
13898;DHT22;7019;50.766;4.474;2023-12-28T12:25:55;11.30;99.90
13898;DHT22;7019;50.766;4.474;2023-12-28T12:28:22;11.20;99.90
13898;DHT22;7019;50.766;4.474;2023-12-28T12:30:51;11.30;99.90
13898;DHT22;7019;50.766;4.474;2023-12-28T12:33:18;11.30;99.90
13898;DHT22;7019;50.766;4.474;2023-12-28T12:35:48;11.20;99.90
13898;DHT22;7019;50.766;4.474;2023-12-28T12:38:16;11.20;99.90
13898;DHT22;7019;50.766;4.474;2023-12-28T12:40:43;11.20;99.90
13898;DHT22;7019;50.766;4.474;2023-12-28T12:43:11;11.20;99.90
13898;DHT22;7019;50.766;4.474;2023-12-28T12:45:38;11.10;99.90
13898;DHT22;7019;50.766;4.474;2023-12-28T12:48:06;11.10;99.90
13898;DHT22;7019;50.766;4.474;2023-12-28T12:50:33;11.10;99.90
13898;DHT22;7019;50.766;4.474;2023-12-28T12:53:05;11.10;99.90
13898;DHT22;7019;50.766;4.474;2023-12-28T12:55:32;11.00;99.90
13898;DHT22;7019;50.766;4.474;2023-12-28T12:57:59;11.00;99.90
13898;DHT22;7019;50.766;4.474;2023-12-28T13:00:27;11.00;99.90
13898;DHT22;7019;50.766;4.474;2023-12-28T13:02:55;11.00;99.90
13898;DHT22;7019;50.766;4.474;2023-12-28T13:05:24;11.00;99.90
13898;DHT22;7019;50.766;4.474;2023-12-28T13:07:51;11.00;99.90
13898;DHT22;7019;50.766;4.474;2023-12-28T13:10:20;10.90;99.90
13898;DHT22;7019;50.766;4.474;2023-12-28T13:12:47;10.90;99.90
13898;DHT22;7019;50.766;4.474;2023-12-28T13:15:14;10.90;99.90
13898;DHT22;7019;50.766;4.474;2023-12-28T13:17:41;10.80;99.90
13898;DHT22;7019;50.766;4.474;2023-12-28T13:20:10;10.80;99.90
13898;DHT22;7019;50.766;4.474;2023-12-28T13:22:37;10.80;99.90
13898;DHT22;7019;50.766;4.474;2023-12-28T13:25:05;10.80;99.90
13898;DHT22;7019;50.766;4.474;2023-12-28T13:27:33;10.80;99.90
13898;DHT22;7019;50.766;4.474;2023-12-28T13:30:00;10.80;99.90
13898;DHT22;7019;50.766;4.474;2023-12-28T13:32:27;10.70;99.90
13898;DHT22;7019;50.766;4.474;2023-12-28T13:34:54;10.80;99.90
13898;DHT22;7019;50.766;4.474;2023-12-28T13:37:22;10.90;99.90
13898;DHT22;7019;50.766;4.474;2023-12-28T13:39:49;10.80;99.90
13898;DHT22;7019;50.766;4.474;2023-12-28T13:42:16;10.70;99.90
13898;DHT22;7019;50.766;4.474;2023-12-28T13:44:44;10.70;99.90
13898;DHT22;7019;50.766;4.474;2023-12-28T13:47:11;10.80;99.90
13898;DHT22;7019;50.766;4.474;2023-12-28T13:49:38;10.70;99.90
13898;DHT22;7019;50.766;4.474;2023-12-28T13:52:05;10.70;99.90
13898;DHT22;7019;50.766;4.474;2023-12-28T13:54:33;10.70;99.90
13898;DHT22;7019;50.766;4.474;2023-12-28T13:57:00;10.80;99.90
13898;DHT22;7019;50.766;4.474;2023-12-28T13:59:27;10.80;99.90
13898;DHT22;7019;50.766;4.474;2023-12-28T14:01:54;10.70;99.90
13898;DHT22;7019;50.766;4.474;2023-12-28T14:04:23;10.70;99.90
13898;DHT22;7019;50.766;4.474;2023-12-28T14:06:50;10.70;99.90
13898;DHT22;7019;50.766;4.474;2023-12-28T14:09:17;10.70;99.90
13898;DHT22;7019;50.766;4.474;2023-12-28T14:11:47;10.70;99.90
13898;DHT22;7019;50.766;4.474;2023-12-28T14:14:14;10.60;99.90
13898;DHT22;7019;50.766;4.474;2023-12-28T14:16:41;10.60;99.90
13898;DHT22;7019;50.766;4.474;2023-12-28T14:19:10;10.60;99.90
13898;DHT22;7019;50.766;4.474;2023-12-28T14:21:38;10.50;99.90
13898;DHT22;7019;50.766;4.474;2023-12-28T14:24:06;10.50;99.90
13898;DHT22;7019;50.766;4.474;2023-12-28T14:26:34;10.50;99.90
13898;DHT22;7019;50.766;4.474;2023-12-28T14:29:07;10.50;99.90
13898;DHT22;7019;50.766;4.474;2023-12-28T14:31:35;10.50;99.90
13898;DHT22;7019;50.766;4.474;2023-12-28T14:34:03;10.40;99.90
13898;DHT22;7019;50.766;4.474;2023-12-28T14:36:34;10.40;99.90
13898;DHT22;7019;50.766;4.474;2023-12-28T14:39:05;10.40;99.90
13898;DHT22;7019;50.766;4.474;2023-12-28T14:41:32;10.40;99.90
13898;DHT22;7019;50.766;4.474;2023-12-28T14:44:00;10.40;99.90
13898;DHT22;7019;50.766;4.474;2023-12-28T14:46:27;10.40;99.90
13898;DHT22;7019;50.766;4.474;2023-12-28T14:48:55;10.40;99.90
13898;DHT22;7019;50.766;4.474;2023-12-28T14:51:23;10.40;99.90
13898;DHT22;7019;50.766;4.474;2023-12-28T14:53:51;10.40;99.90
13898;DHT22;7019;50.766;4.474;2023-12-28T14:56:18;10.30;99.90
13898;DHT22;7019;50.766;4.474;2023-12-28T14:58:46;10.30;99.90
13898;DHT22;7019;50.766;4.474;2023-12-28T15:01:14;10.30;99.90
13898;DHT22;7019;50.766;4.474;2023-12-28T15:03:41;10.30;99.90
13898;DHT22;7019;50.766;4.474;2023-12-28T15:06:08;10.20;99.90
13898;DHT22;7019;50.766;4.474;2023-12-28T15:08:36;10.10;99.90
13898;DHT22;7019;50.766;4.474;2023-12-28T15:11:05;10.10;99.90
13898;DHT22;7019;50.766;4.474;2023-12-28T15:13:36;10.00;99.90
13898;DHT22;7019;50.766;4.474;2023-12-28T15:16:04;10.10;99.90
13898;DHT22;7019;50.766;4.474;2023-12-28T15:18:31;10.00;99.90
13898;DHT22;7019;50.766;4.474;2023-12-28T15:20:59;10.00;99.90
13898;DHT22;7019;50.766;4.474;2023-12-28T15:23:27;9.90;99.90
13898;DHT22;7019;50.766;4.474;2023-12-28T15:25:54;9.90;99.90
13898;DHT22;7019;50.766;4.474;2023-12-28T15:28:23;9.80;99.90
13898;DHT22;7019;50.766;4.474;2023-12-28T15:30:50;9.80;99.90
13898;DHT22;7019;50.766;4.474;2023-12-28T15:33:17;9.70;99.90
13898;DHT22;7019;50.766;4.474;2023-12-28T15:35:44;9.70;99.90
13898;DHT22;7019;50.766;4.474;2023-12-28T15:38:11;9.80;99.90
13898;DHT22;7019;50.766;4.474;2023-12-28T15:40:41;9.80;99.90
13898;DHT22;7019;50.766;4.474;2023-12-28T15:43:09;9.80;99.90
13898;DHT22;7019;50.766;4.474;2023-12-28T15:45:37;9.80;99.90
13898;DHT22;7019;50.766;4.474;2023-12-28T15:48:05;9.70;99.90
13898;DHT22;7019;50.766;4.474;2023-12-28T15:50:33;9.70;99.90
13898;DHT22;7019;50.766;4.474;2023-12-28T15:53:00;9.60;99.90
13898;DHT22;7019;50.766;4.474;2023-12-28T15:55:27;9.50;99.90
13898;DHT22;7019;50.766;4.474;2023-12-28T15:57:54;9.50;99.90
13898;DHT22;7019;50.766;4.474;2023-12-28T16:00:21;9.50;99.90
13898;DHT22;7019;50.766;4.474;2023-12-28T16:02:49;9.60;99.90